SKUC/AUC METAR and TAF weather

Enter ICAO airport designator
Station Type Date Time Source
SKUC METAR 2021/04/12 14:00 UTC NOAA

SKUC 121400Z 28006KT 9999 SCT015 28/25 Q1014 RMK A2994


Station Type Date Time Source
SKUC Decoded METAR 2021/04/12 14:00 UTC NOAA

Arauca / Santiago Perez, Colombia (SKUC) 07-04N 070-44W 128M
Apr 12, 2021 - 10:00 AM EDT / 2021.04.12 1400 UTC
Wind: from the W (280 degrees) at 7 MPH (6 KT):0
Visibility: greater than 7 mile(s):0
Sky conditions: partly cloudy
Temperature: 82 F (28 C)
Dew Point: 77 F (25 C)
Relative Humidity: 83%
Pressure (altimeter): 29.94 in. Hg (1014 hPa)
ob: SKUC 121400Z 28006KT 9999 SCT015 28/25 Q1014 RMK A2994
cycle: 14

Station Type Date Time Source
SKUC TAF UTC NOAA

Error!

Example: see airport list